KAKR/AKR METAR and TAF weather

Enter ICAO airport designator
Station Type Date Time Source
KAKR METAR 2022/06/28 14:54 UTC NOAA

KAKR 281454Z AUTO 01007KT CLR 22/07 A3026 RMK AO2 SLP240 T02170072 50002 $


Station Type Date Time Source
KAKR Decoded METAR 2022/06/28 14:54 UTC NOAA

AKRON FULTON INTERNATIONAL, OH, United States (KAKR) 41-02N 081-28W 363M
Jun 28, 2022 - 10:54 AM EDT / 2022.06.28 1454 UTC
Wind: from the N (010 degrees) at 8 MPH (7 KT):0
Sky conditions: clear
Temperature: 71.1 F (21.7 C)
Dew Point: 45.0 F (7.2 C)
Relative Humidity: 39%
Pressure (altimeter): 30.26 in. Hg (1024 hPa)
Pressure tendency: 0.01 inches (0.2 hPa) higher than three hours ago
ob: KAKR 281454Z AUTO 01007KT CLR 22/07 A3026 RMK AO2 SLP240 T02170072 50002
cycle: 15

Station Type Date Time Source
KAKR TAF UTC NOAA

Error!

Example: see airport list